createdAt,value
2022-11-17T00:00:42.897Z,4.49
2022-11-17T00:03:15.432Z,4.49
2022-11-17T00:05:43.932Z,4.56
2022-11-17T00:08:11.726Z,4.56
2022-11-17T00:10:39.173Z,4.51
2022-11-17T00:13:24.944Z,4.56
2022-11-17T00:15:52.491Z,4.57
2022-11-17T00:18:38.529Z,4.53
2022-11-17T00:21:25.973Z,4.61
2022-11-17T00:23:54.130Z,4.52
2022-11-17T00:26:26.746Z,4.54
2022-11-17T00:28:58.932Z,4.51
2022-11-17T00:31:46.684Z,4.54
2022-11-17T00:34:23.492Z,4.50
2022-11-17T00:36:53.583Z,4.47
2022-11-17T00:39:22.607Z,4.40
2022-11-17T00:41:50.715Z,4.33
2022-11-17T00:44:18.233Z,4.36
2022-11-17T00:46:45.727Z,4.20
2022-11-17T00:49:14.871Z,4.22
2022-11-17T00:51:42.463Z,4.24
2022-11-17T00:54:13.090Z,4.12
2022-11-17T00:56:40.793Z,3.77
2022-11-17T00:59:08.315Z,3.88
2022-11-17T01:01:36.370Z,3.97
2022-11-17T01:04:04.960Z,4.04
2022-11-17T01:06:33.372Z,4.07
2022-11-17T01:09:14.904Z,4.01
2022-11-17T01:11:43.877Z,4.05
2022-11-17T01:14:20.466Z,4.11
2022-11-17T01:16:47.991Z,4.12
2022-11-17T01:19:16.217Z,4.15
2022-11-17T01:21:43.769Z,3.86
2022-11-17T01:24:13.039Z,4.01
2022-11-17T01:26:41.249Z,3.88
2022-11-17T01:29:09.652Z,3.56
2022-11-17T01:31:40.096Z,3.74
2022-11-17T01:34:08.325Z,3.78
2022-11-17T01:36:57.690Z,3.85
2022-11-17T01:39:26.526Z,3.98
2022-11-17T01:41:54.395Z,4.11
2022-11-17T01:44:59.419Z,4.09
2022-11-17T01:48:00.515Z,4.13
2022-11-17T01:50:34.173Z,4.22
2022-11-17T01:55:53.593Z,4.09
2022-11-17T01:58:31.365Z,4.18
2022-11-17T02:00:58.959Z,3.97
2022-11-17T02:03:27.738Z,3.93
2022-11-17T02:06:05.911Z,4.08
2022-11-17T02:08:36.180Z,4.11
2022-11-17T02:11:08.398Z,4.15
2022-11-17T02:13:36.986Z,3.79
2022-11-17T02:16:24.756Z,3.74
2022-11-17T02:18:52.303Z,3.97
2022-11-17T02:21:19.672Z,4.16
2022-11-17T02:23:47.168Z,4.00
2022-11-17T02:26:29.670Z,4.21
2022-11-17T02:32:30.243Z,4.09
2022-11-17T02:35:09.103Z,4.17
2022-11-17T02:38:01.266Z,4.26
2022-11-17T02:40:39.985Z,4.23
2022-11-17T02:43:38.620Z,4.22
2022-11-17T02:46:17.607Z,4.33
2022-11-17T02:51:44.700Z,4.34
2022-11-17T02:54:12.966Z,4.37
2022-11-17T02:56:44.479Z,4.39
2022-11-17T02:59:45.790Z,4.21
2022-11-17T03:02:13.240Z,4.23
2022-11-17T03:05:13.749Z,3.98
2022-11-17T03:07:41.027Z,4.34
2022-11-17T03:10:37.902Z,4.40
2022-11-17T03:13:11.245Z,4.57
2022-11-17T03:15:49.567Z,4.66
2022-11-17T03:18:39.696Z,4.74
2022-11-17T03:21:35.382Z,4.62
2022-11-17T03:24:12.949Z,4.62
2022-11-17T03:26:47.819Z,4.75
2022-11-17T03:29:20.860Z,4.79
2022-11-17T03:31:52.091Z,4.82
2022-11-17T03:34:24.096Z,4.81
2022-11-17T03:39:51.720Z,4.30
2022-11-17T03:42:25.572Z,4.59
2022-11-17T03:44:59.426Z,4.66
2022-11-17T03:47:28.929Z,4.69
2022-11-17T03:50:06.389Z,4.76
2022-11-17T03:52:35.269Z,4.93
2022-11-17T03:55:03.354Z,4.99
2022-11-17T03:57:52.219Z,4.98
2022-11-17T04:00:20.404Z,4.98
2022-11-17T04:02:54.735Z,5.06
2022-11-17T04:05:22.718Z,5.10
2022-11-17T04:07:50.228Z,5.00
2022-11-17T04:10:25.320Z,5.15
2022-11-17T04:13:13.120Z,5.22
2022-11-17T04:15:59.488Z,5.19
2022-11-17T04:18:27.416Z,4.94
2022-11-17T04:20:57.334Z,4.91
2022-11-17T04:23:25.845Z,5.05
2022-11-17T04:26:13.190Z,5.14
2022-11-17T04:28:44.812Z,5.02
2022-11-17T04:31:27.390Z,5.00
2022-11-17T04:34:00.800Z,5.08
2022-11-17T04:36:31.137Z,5.06
2022-11-17T04:39:00.410Z,5.02
2022-11-17T04:41:48.101Z,5.09
2022-11-17T04:44:18.077Z,5.33
2022-11-17T04:46:46.551Z,5.46
2022-11-17T04:49:15.917Z,5.57
2022-11-17T04:51:43.383Z,5.50
2022-11-17T04:57:04.742Z,5.41
2022-11-17T04:59:32.470Z,5.67
2022-11-17T05:02:05.608Z,5.78
2022-11-17T05:04:54.088Z,5.58
2022-11-17T05:07:22.595Z,5.48
2022-11-17T05:09:51.276Z,5.51
2022-11-17T05:12:40.659Z,5.58
2022-11-17T05:15:09.527Z,5.65
2022-11-17T05:17:37.383Z,5.50
2022-11-17T05:20:05.721Z,5.30
2022-11-17T05:23:06.388Z,5.53
2022-11-17T05:25:35.004Z,5.73
2022-11-17T05:28:05.777Z,5.60
2022-11-17T05:30:34.851Z,5.55
2022-11-17T05:33:02.680Z,5.85
2022-11-17T05:35:31.852Z,5.57
2022-11-17T05:38:01.735Z,5.42
2022-11-17T05:40:30.814Z,5.65
2022-11-17T05:43:04.542Z,5.40
2022-11-17T05:45:33.809Z,5.40
2022-11-17T05:48:04.173Z,5.53
2022-11-17T05:50:32.255Z,5.44
2022-11-17T05:53:06.211Z,5.78
2022-11-17T05:55:34.490Z,5.79
2022-11-17T05:58:27.491Z,6.10
2022-11-17T06:00:58.108Z,6.24
2022-11-17T06:03:38.414Z,6.31
2022-11-17T06:06:07.715Z,5.92
2022-11-17T06:08:40.128Z,6.19
2022-11-17T06:11:08.998Z,6.28
2022-11-17T06:13:40.041Z,6.46
2022-11-17T06:16:12.252Z,6.52
2022-11-17T06:18:46.442Z,6.63
2022-11-17T06:21:17.683Z,6.67
2022-11-17T06:23:55.352Z,6.83
2022-11-17T06:26:23.608Z,6.57
2022-11-17T06:28:54.300Z,6.30
2022-11-17T06:31:28.689Z,5.94
2022-11-17T06:33:56.880Z,6.22
2022-11-17T06:36:26.991Z,6.40
2022-11-17T06:38:59.243Z,6.48
2022-11-17T06:41:27.540Z,6.53
2022-11-17T06:43:59.844Z,6.76
2022-11-17T06:46:38.500Z,6.88
2022-11-17T06:49:08.481Z,7.05
2022-11-17T06:51:38.916Z,7.17
2022-11-17T06:54:11.498Z,7.21
2022-11-17T06:56:39.462Z,7.28
2022-11-17T06:59:07.785Z,7.38
2022-11-17T07:01:36.023Z,7.24
2022-11-17T07:04:10.450Z,7.06
2022-11-17T07:06:45.211Z,6.98
2022-11-17T07:09:53.279Z,7.09
2022-11-17T07:12:32.292Z,7.29
2022-11-17T07:15:01.374Z,7.39
2022-11-17T07:18:00.326Z,7.51
2022-11-17T07:20:35.669Z,7.61
2022-11-17T07:23:06.461Z,7.71
2022-11-17T07:26:00.797Z,7.65
2022-11-17T07:28:37.063Z,7.69
2022-11-17T07:31:08.777Z,7.73
2022-11-17T07:33:50.934Z,7.84
2022-11-17T07:36:29.904Z,7.77
2022-11-17T07:38:58.342Z,7.85
2022-11-17T07:41:31.589Z,7.85
2022-11-17T07:46:58.216Z,7.84
2022-11-17T07:49:28.888Z,7.70
2022-11-17T07:51:57.119Z,7.88
2022-11-17T07:54:25.083Z,7.92
2022-11-17T07:56:52.996Z,8.02
2022-11-17T07:59:23.096Z,8.09
2022-11-17T08:01:54.832Z,8.03
2022-11-17T08:04:24.481Z,8.17
2022-11-17T08:06:53.550Z,7.93
2022-11-17T08:09:21.549Z,7.93
2022-11-17T08:11:50.261Z,8.00
2022-11-17T08:14:18.941Z,8.13
2022-11-17T08:16:47.867Z,8.05
2022-11-17T08:19:16.207Z,8.03
2022-11-17T08:21:45.688Z,8.02
2022-11-17T08:24:47.385Z,8.09
2022-11-17T08:27:20.015Z,8.24
2022-11-17T08:29:48.471Z,8.14
2022-11-17T08:32:21.081Z,8.15
2022-11-17T08:34:54.402Z,8.06
2022-11-17T08:37:22.411Z,8.08
2022-11-17T08:39:50.456Z,8.20
2022-11-17T08:42:18.098Z,8.12
2022-11-17T08:44:46.346Z,8.09
2022-11-17T08:47:13.991Z,7.96
2022-11-17T08:49:41.784Z,8.01
2022-11-17T08:52:09.600Z,7.79
2022-11-17T08:54:37.916Z,7.96
2022-11-17T08:57:06.171Z,8.16
2022-11-17T08:59:35.215Z,8.23
2022-11-17T09:02:04.366Z,8.25
2022-11-17T09:04:34.875Z,8.33
2022-11-17T09:07:04.793Z,8.29
2022-11-17T09:09:33.968Z,8.24
2022-11-17T09:12:02.641Z,8.27
2022-11-17T09:14:32.360Z,8.26
2022-11-17T09:17:03.633Z,7.99
2022-11-17T09:19:42.266Z,7.94
2022-11-17T09:22:10.682Z,8.10
2022-11-17T09:27:23.316Z,8.18
2022-11-17T09:29:51.288Z,8.42
2022-11-17T09:32:21.515Z,8.38
2022-11-17T09:34:50.014Z,8.42
2022-11-17T09:37:22.052Z,8.43
2022-11-17T09:39:50.342Z,8.46
2022-11-17T09:42:21.166Z,8.45
2022-11-17T09:45:03.416Z,8.49
2022-11-17T09:47:42.695Z,8.52
2022-11-17T09:50:28.267Z,8.40
2022-11-17T09:53:16.522Z,8.41
2022-11-17T09:55:48.953Z,8.27
2022-11-17T09:58:39.809Z,8.30
2022-11-17T10:01:13.105Z,8.33
2022-11-17T10:03:46.377Z,8.35
2022-11-17T10:06:17.712Z,8.28
2022-11-17T10:09:17.774Z,8.16
2022-11-17T10:11:48.803Z,8.24
2022-11-17T10:14:19.543Z,8.16
2022-11-17T10:16:59.603Z,8.21
2022-11-17T10:19:31.380Z,8.34
2022-11-17T10:22:02.780Z,8.43
2022-11-17T10:24:35.402Z,8.47
2022-11-17T10:27:21.523Z,8.49
2022-11-17T10:29:59.805Z,8.49
2022-11-17T10:32:32.124Z,8.47
2022-11-17T10:35:37.035Z,8.35
2022-11-17T10:38:20.322Z,8.33
2022-11-17T10:40:52.226Z,8.32
2022-11-17T10:44:13.992Z,8.48
2022-11-17T10:47:02.307Z,8.33
2022-11-17T10:49:35.400Z,8.40
2022-11-17T10:52:06.803Z,8.38
2022-11-17T10:54:34.893Z,8.50
2022-11-17T10:57:05.881Z,8.48
2022-11-17T10:59:48.695Z,8.57
2022-11-17T11:02:32.672Z,8.51
2022-11-17T11:05:15.545Z,8.62
2022-11-17T11:07:44.310Z,8.23
2022-11-17T11:10:30.549Z,8.46
2022-11-17T11:13:29.558Z,8.42
2022-11-17T11:16:04.244Z,8.58
2022-11-17T11:18:33.638Z,8.68
2022-11-17T11:21:08.412Z,8.63
2022-11-17T11:23:47.136Z,8.71
2022-11-17T11:26:37.627Z,8.66
2022-11-17T11:29:13.088Z,8.59
2022-11-17T11:31:58.747Z,8.68
2022-11-17T11:38:01.403Z,8.87
2022-11-17T11:40:41.925Z,8.83
2022-11-17T11:43:41.071Z,8.95
2022-11-17T11:46:21.386Z,8.83
2022-11-17T11:48:56.048Z,8.83
2022-11-17T11:51:34.257Z,8.89
2022-11-17T11:54:06.076Z,9.01
2022-11-17T11:56:37.568Z,9.13
2022-11-17T11:59:16.218Z,9.11
2022-11-17T12:01:53.781Z,9.22
2022-11-17T12:04:43.849Z,9.29
2022-11-17T12:07:42.836Z,9.25
2022-11-17T12:10:33.768Z,9.33
2022-11-17T12:13:05.929Z,9.21
2022-11-17T12:15:37.188Z,9.30
2022-11-17T12:18:12.144Z,9.31
2022-11-17T12:20:43.291Z,9.39
2022-11-17T12:26:24.963Z,9.32
2022-11-17T12:29:22.208Z,9.36
2022-11-17T12:31:52.005Z,9.42
2022-11-17T12:34:28.489Z,9.51
2022-11-17T12:37:20.692Z,9.60
2022-11-17T12:39:57.306Z,9.49
2022-11-17T12:42:25.138Z,9.47
2022-11-17T12:45:13.988Z,9.60
2022-11-17T12:47:59.552Z,9.60
2022-11-17T12:50:47.486Z,9.65
2022-11-17T12:53:32.186Z,9.71
2022-11-17T12:56:30.215Z,9.71
2022-11-17T12:59:32.388Z,9.75
2022-11-17T13:02:13.774Z,9.65
2022-11-17T13:05:04.352Z,9.73
2022-11-17T13:07:33.325Z,9.73
2022-11-17T13:10:03.182Z,9.77
2022-11-17T13:12:32.493Z,9.84
2022-11-17T13:15:05.786Z,9.80
2022-11-17T13:17:44.020Z,9.81
2022-11-17T13:20:20.638Z,9.90
2022-11-17T13:23:05.035Z,9.87
2022-11-17T13:25:33.948Z,9.96
2022-11-17T13:28:05.027Z,9.93
2022-11-17T13:30:33.828Z,9.93
2022-11-17T13:33:02.923Z,9.98
2022-11-17T13:35:36.869Z,10.00
2022-11-17T13:38:21.687Z,9.95
2022-11-17T13:40:51.379Z,9.98
2022-11-17T13:43:21.850Z,10.01
2022-11-17T13:45:51.446Z,10.02
2022-11-17T13:48:37.007Z,10.05
2022-11-17T13:51:26.364Z,9.98
2022-11-17T13:54:02.984Z,10.02
2022-11-17T13:56:34.382Z,10.04
2022-11-17T13:59:07.279Z,10.06
2022-11-17T14:01:34.892Z,10.10
2022-11-17T14:04:28.977Z,10.10
2022-11-17T14:07:01.893Z,10.11
2022-11-17T14:09:32.339Z,10.11
2022-11-17T14:11:59.987Z,10.15
2022-11-17T14:14:47.809Z,10.17
2022-11-17T14:17:25.027Z,10.21
2022-11-17T14:19:52.643Z,10.23
2022-11-17T14:22:31.469Z,10.25
2022-11-17T14:24:59.872Z,10.26
2022-11-17T14:27:30.240Z,10.29
2022-11-17T14:29:57.784Z,10.24
2022-11-17T14:32:25.227Z,10.32
2022-11-17T14:34:52.839Z,10.34
2022-11-17T14:37:20.678Z,10.37
2022-11-17T14:39:48.323Z,10.30
2022-11-17T14:42:15.824Z,10.32
2022-11-17T14:44:43.249Z,10.35
2022-11-17T14:47:11.228Z,10.38
2022-11-17T14:49:38.555Z,10.33
2022-11-17T14:52:05.988Z,10.35
2022-11-17T14:54:34.081Z,10.37
2022-11-17T14:57:01.543Z,10.40
2022-11-17T14:59:29.067Z,10.27
2022-11-17T15:01:56.570Z,10.37
2022-11-17T15:07:11.764Z,10.42
2022-11-17T15:09:39.685Z,10.38
2022-11-17T15:12:07.523Z,10.39
2022-11-17T15:14:35.101Z,10.43
2022-11-17T15:17:02.785Z,10.42
2022-11-17T15:19:30.167Z,10.50
2022-11-17T15:21:57.921Z,10.54
2022-11-17T15:24:25.381Z,10.58
2022-11-17T15:26:53.030Z,10.65
2022-11-17T15:29:20.832Z,10.65
2022-11-17T15:31:48.417Z,10.71
2022-11-17T15:34:20.225Z,10.68
2022-11-17T15:36:49.111Z,10.67
2022-11-17T15:39:17.789Z,10.70
2022-11-17T15:41:45.663Z,10.64
2022-11-17T15:44:13.990Z,10.65
2022-11-17T15:46:46.906Z,10.69
2022-11-17T15:49:15.509Z,10.66
2022-11-17T15:51:43.394Z,10.67
2022-11-17T15:54:19.995Z,10.70
2022-11-17T15:56:49.265Z,10.70
2022-11-17T15:59:17.618Z,10.70
2022-11-17T16:01:46.011Z,10.73
2022-11-17T16:04:16.259Z,10.70
2022-11-17T16:06:46.016Z,10.76
2022-11-17T16:09:15.313Z,10.79
2022-11-17T16:11:43.542Z,10.76
2022-11-17T16:14:12.017Z,10.73
2022-11-17T16:16:40.187Z,10.69
2022-11-17T16:19:08.148Z,10.72
2022-11-17T16:21:35.698Z,10.74
2022-11-17T16:24:03.583Z,10.68
2022-11-17T16:26:31.481Z,10.67
2022-11-17T16:29:04.440Z,10.70
2022-11-17T16:31:34.698Z,10.68
2022-11-17T16:34:04.746Z,10.65
2022-11-17T16:36:36.768Z,10.62
2022-11-17T16:39:06.862Z,10.56
2022-11-17T16:41:36.806Z,10.55
2022-11-17T16:44:14.745Z,10.54
2022-11-17T16:46:44.763Z,10.50
2022-11-17T16:49:23.189Z,10.47
2022-11-17T16:51:52.944Z,10.44
2022-11-17T16:54:21.242Z,10.43
2022-11-17T16:56:48.486Z,10.42
2022-11-17T16:59:16.528Z,10.45
2022-11-17T17:01:44.384Z,10.43
2022-11-17T17:04:12.678Z,10.45
2022-11-17T17:06:42.740Z,10.49
2022-11-17T17:09:11.876Z,10.42
2022-11-17T17:11:39.772Z,10.45
2022-11-17T17:14:09.917Z,10.43
2022-11-17T17:16:41.801Z,10.42
2022-11-17T17:19:11.782Z,10.36
2022-11-17T17:21:41.122Z,10.15
2022-11-17T17:24:10.616Z,10.27
2022-11-17T17:26:40.542Z,10.33
2022-11-17T17:29:08.433Z,10.34
2022-11-17T17:31:38.867Z,10.39
2022-11-17T17:34:07.282Z,10.43
2022-11-17T17:36:36.737Z,10.37
2022-11-17T17:39:05.314Z,10.50
2022-11-17T17:41:35.250Z,10.53
2022-11-17T17:44:06.056Z,10.50
2022-11-17T17:46:38.931Z,10.48
2022-11-17T17:49:07.177Z,10.48
2022-11-17T17:51:38.242Z,10.45
2022-11-17T17:54:06.288Z,10.40
2022-11-17T17:56:34.907Z,10.45
2022-11-17T17:59:02.478Z,10.48
2022-11-17T18:01:33.358Z,10.30
2022-11-17T18:04:05.273Z,10.33
2022-11-17T18:06:46.210Z,10.36
2022-11-17T18:09:16.023Z,10.38
2022-11-17T18:11:48.022Z,10.41
2022-11-17T18:14:24.499Z,10.23
2022-11-17T18:16:53.097Z,10.12
2022-11-17T18:19:20.473Z,10.21
2022-11-17T18:21:47.923Z,10.29
2022-11-17T18:24:15.302Z,10.30
2022-11-17T18:26:42.766Z,10.35
2022-11-17T18:29:18.936Z,10.37
2022-11-17T18:31:47.716Z,10.37
2022-11-17T18:34:25.918Z,10.38
2022-11-17T18:36:55.975Z,10.36
2022-11-17T18:39:24.863Z,10.33
2022-11-17T18:41:52.415Z,10.36
2022-11-17T18:44:20.046Z,10.39
2022-11-17T18:46:47.945Z,10.35
2022-11-17T18:49:15.773Z,10.28
2022-11-17T18:51:43.676Z,10.26
2022-11-17T18:54:12.562Z,10.28
2022-11-17T18:56:41.163Z,10.29
2022-11-17T18:59:12.055Z,10.34
2022-11-17T19:01:41.444Z,10.32
2022-11-17T19:04:10.426Z,10.29
2022-11-17T19:06:37.966Z,10.26
2022-11-17T19:09:06.273Z,10.32
2022-11-17T19:11:35.183Z,10.35
2022-11-17T19:14:04.462Z,10.41
2022-11-17T19:16:32.957Z,10.44
2022-11-17T19:19:00.775Z,10.39
2022-11-17T19:21:31.035Z,10.43
2022-11-17T19:24:03.767Z,10.50
2022-11-17T19:26:34.396Z,10.53
2022-11-17T19:29:12.819Z,10.53
2022-11-17T19:31:44.666Z,10.51
2022-11-17T19:34:12.864Z,10.56
2022-11-17T19:36:53.466Z,10.58
2022-11-17T19:39:20.929Z,10.61
2022-11-17T19:41:48.472Z,10.62
2022-11-17T19:44:16.087Z,10.60
2022-11-17T19:46:43.672Z,10.57
2022-11-17T19:49:11.929Z,10.60
2022-11-17T19:51:40.115Z,10.63
2022-11-17T19:54:08.634Z,10.60
2022-11-17T19:56:36.840Z,10.62
2022-11-17T20:01:46.482Z,10.64
2022-11-17T20:04:14.383Z,10.66
2022-11-17T20:06:42.024Z,10.68
2022-11-17T20:09:12.155Z,10.73
2022-11-17T20:11:41.196Z,10.75
2022-11-17T20:14:08.870Z,10.77
2022-11-17T20:16:38.996Z,10.78
2022-11-17T20:19:07.134Z,10.81
2022-11-17T20:21:35.078Z,10.85
2022-11-17T20:24:03.011Z,10.81
2022-11-17T20:26:33.128Z,10.80
2022-11-17T20:31:45.702Z,10.85
2022-11-17T20:34:13.427Z,10.85
2022-11-17T20:36:41.081Z,10.85
2022-11-17T20:39:08.622Z,10.84
2022-11-17T20:41:36.209Z,10.80
2022-11-17T20:44:04.335Z,10.81
2022-11-17T20:46:39.763Z,10.76
2022-11-17T20:49:07.279Z,10.73
2022-11-17T20:51:34.729Z,10.72
2022-11-17T20:54:02.346Z,10.71
2022-11-17T20:56:29.839Z,10.65
2022-11-17T20:58:57.281Z,10.63
2022-11-17T21:01:24.788Z,10.68
2022-11-17T21:03:53.221Z,10.76
2022-11-17T21:06:23.286Z,10.81
2022-11-17T21:08:51.513Z,10.79
2022-11-17T21:11:40.199Z,10.83
2022-11-17T21:14:10.788Z,10.82
2022-11-17T21:16:40.676Z,10.82
2022-11-17T21:19:09.377Z,10.87
2022-11-17T21:21:36.946Z,10.94
2022-11-17T21:24:05.009Z,10.95
2022-11-17T21:26:33.075Z,10.90
2022-11-17T21:29:05.923Z,10.91
2022-11-17T21:31:34.464Z,10.93
2022-11-17T21:34:06.420Z,10.90
2022-11-17T21:36:42.184Z,10.97
2022-11-17T21:39:16.995Z,10.94
2022-11-17T21:41:44.867Z,11.01
2022-11-17T21:44:14.353Z,10.96
2022-11-17T21:46:41.890Z,10.99
2022-11-17T21:49:09.382Z,10.97
2022-11-17T21:51:38.874Z,11.02
2022-11-17T21:54:10.155Z,11.07
2022-11-17T21:56:38.232Z,11.09
2022-11-17T21:59:10.184Z,11.11
2022-11-17T22:01:38.226Z,11.12
2022-11-17T22:04:05.834Z,11.09
2022-11-17T22:06:34.983Z,11.15
2022-11-17T22:09:02.372Z,11.11
2022-11-17T22:11:38.593Z,11.08
2022-11-17T22:14:18.412Z,11.11
2022-11-17T22:16:52.286Z,11.04
2022-11-17T22:19:22.258Z,11.06
2022-11-17T22:21:51.721Z,10.97
2022-11-17T22:24:19.578Z,10.99
2022-11-17T22:26:48.146Z,10.98
2022-11-17T22:29:18.595Z,10.99
2022-11-17T22:31:48.833Z,10.96
2022-11-17T22:34:17.788Z,10.96
2022-11-17T22:36:45.304Z,10.94
2022-11-17T22:39:12.919Z,10.93
2022-11-17T22:41:40.434Z,10.84
2022-11-17T22:44:08.086Z,10.87
2022-11-17T22:49:20.893Z,10.85
2022-11-17T22:52:08.918Z,10.92
2022-11-17T22:54:36.721Z,10.92
2022-11-17T22:57:04.334Z,10.94
2022-11-17T22:59:31.889Z,10.91
2022-11-17T23:01:59.513Z,10.93
2022-11-17T23:04:27.189Z,10.91
2022-11-17T23:06:54.827Z,10.84
2022-11-17T23:09:22.401Z,10.71
2022-11-17T23:11:50.162Z,10.41
2022-11-17T23:14:17.523Z,10.30
2022-11-17T23:16:45.080Z,10.35
2022-11-17T23:19:14.278Z,10.27
2022-11-17T23:21:42.722Z,10.26
2022-11-17T23:24:11.307Z,10.27
2022-11-17T23:26:40.348Z,10.32
2022-11-17T23:29:09.471Z,10.29
2022-11-17T23:31:37.000Z,10.26
2022-11-17T23:34:04.459Z,10.26
2022-11-17T23:36:31.981Z,10.20
2022-11-17T23:38:59.503Z,10.26
2022-11-17T23:41:26.994Z,10.27
2022-11-17T23:43:54.947Z,10.29
2022-11-17T23:46:24.872Z,10.25
2022-11-17T23:48:52.855Z,10.25
2022-11-17T23:51:23.079Z,10.33
2022-11-17T23:53:50.670Z,10.28
2022-11-17T23:56:20.733Z,10.32
2022-11-17T23:58:48.808Z,10.35
